Time;durP1;ratioP1;P1;durP2;ratioP2;P2;SDS_P1;SDS_P2;PMS_P1;PMS_P2;Temp;Humidity;BMP_temperature;BMP_pressure;BME280_temperature;BME280_humidity;BME280_pressure;Samples;Min_cycle;Max_cycle;Signal;HPM_P1;HPM_P2
2022/05/21 00:00:12;;;;;;;;;6.20;6.00;;;;;25.38;41.32;98326.88;6012957;28;98525;-73
2022/05/21 00:03:15;;;;;;;;;7.40;7.40;;;;;25.34;41.61;98331.44;6027499;28;97059;-74
2022/05/21 00:06:20;;;;;;;;;5.20;5.00;;;;;25.41;41.71;98338.03;6027650;28;98747;-74
2022/05/21 00:09:23;;;;;;;;;5.00;5.00;;;;;25.53;41.27;98323.53;6044522;28;96429;-74
2022/05/21 00:12:27;;;;;;;;;5.00;5.00;;;;;25.57;41.59;98332.00;6026792;28;97668;-74
2022/05/21 00:15:33;;;;;;;;;6.00;6.00;;;;;25.52;41.61;98321.09;6027111;28;96765;-74
2022/05/21 00:18:36;;;;;;;;;5.00;5.00;;;;;25.66;42.19;98335.50;6044538;28;97527;-73
2022/05/21 00:21:41;;;;;;;;;5.00;5.00;;;;;25.53;42.04;98331.00;6044612;28;97137;-73
2022/05/21 00:24:45;;;;;;;;;3.00;3.00;;;;;25.41;42.10;98354.59;6043152;28;96670;-74
2022/05/21 00:27:48;;;;;;;;;3.00;3.00;;;;;25.32;42.49;98339.22;6044821;28;96922;-74
2022/05/21 00:30:52;;;;;;;;;3.00;3.00;;;;;25.07;42.70;98332.66;6039604;28;99577;-73
2022/05/21 00:33:55;;;;;;;;;4.00;4.00;;;;;25.27;42.93;98339.41;6011863;28;98542;-74
2022/05/21 00:37:01;;;;;;;;;3.00;2.00;;;;;25.28;42.99;98321.72;6027252;28;98484;-73
2022/05/21 00:40:05;;;;;;;;;3.00;2.00;;;;;25.32;42.97;98306.91;6043779;28;96785;-75
2022/05/21 00:43:36;;;;;;;;;1.40;1.40;;;;;25.21;43.69;98325.00;6043783;28;96986;-73
2022/05/21 00:46:42;;;;;;;;;2.00;2.00;;;;;25.30;43.52;98284.38;6011427;28;97842;-73
2022/05/21 00:49:46;;;;;;;;;3.00;2.40;;;;;25.23;43.61;98266.72;6027507;28;98754;-73
2022/05/21 00:52:53;;;;;;;;;3.00;2.80;;;;;24.96;44.38;98279.03;6026669;28;98565;-74
2022/05/21 00:55:58;;;;;;;;;3.00;2.00;;;;;25.01;44.23;98273.34;6044753;28;97524;-72
2022/05/21 01:02:29;;;;;;;;;3.00;2.00;;;;;24.78;44.51;98271.91;6026608;28;98215;-74
2022/05/21 01:05:33;;;;;;;;;2.00;2.00;;;;;24.67;44.72;98271.47;6044250;28;97393;-74
2022/05/21 01:08:38;;;;;;;;;2.00;2.00;;;;;24.64;44.48;98250.06;6026868;28;98493;-74
2022/05/21 01:11:42;;;;;;;;;1.60;1.00;;;;;24.56;44.84;98245.41;6027076;28;96453;-74
2022/05/21 01:14:49;;;;;;;;;1.00;1.00;;;;;24.56;44.46;98234.38;6042173;28;96687;-74
2022/05/21 01:17:52;;;;;;;;;1.25;1.25;;;;;24.28;45.26;98244.97;6026123;28;99372;-73
2022/05/21 01:20:57;;;;;;;;;2.00;2.00;;;;;24.27;44.86;98232.34;6043512;28;96695;-75
2022/05/21 01:24:02;;;;;;;;;2.00;2.00;;;;;24.40;44.66;98241.53;6043757;28;97577;-75
2022/05/21 01:27:06;;;;;;;;;2.00;2.00;;;;;24.47;44.72;98239.09;6043512;28;97532;-75
2022/05/21 01:30:14;;;;;;;;;1.00;1.00;;;;;24.56;44.36;98235.19;6049110;28;97511;-75
2022/05/21 01:33:22;;;;;;;;;2.00;2.00;;;;;24.62;44.05;98232.25;6043966;28;96751;-73
2022/05/21 01:36:25;;;;;;;;;1.80;1.80;;;;;24.65;44.06;98243.41;6043637;28;96720;-74
2022/05/21 01:39:30;;;;;;;;;2.00;2.00;;;;;24.62;43.86;98243.28;6042828;28;97472;-74
2022/05/21 01:42:34;;;;;;;;;2.00;2.00;;;;;24.67;43.71;98249.41;6026476;28;97995;-75
2022/05/21 01:45:37;;;;;;;;;1.50;1.50;;;;;24.71;43.34;98247.63;6043513;28;97054;-75
2022/05/21 01:48:41;;;;;;;;;3.00;3.00;;;;;24.74;42.92;98246.94;6041758;28;98102;-73
2022/05/21 01:51:44;;;;;;;;;3.00;2.75;;;;;24.53;42.65;98204.72;6045512;28;96408;-74
2022/05/21 01:54:49;;;;;;;;;1.00;1.00;;;;;24.86;42.58;98243.50;6048369;28;97574;-75
2022/05/21 01:57:52;;;;;;;;;2.00;2.00;;;;;24.89;42.42;98245.63;6047705;28;96453;-75
2022/05/21 02:00:56;;;;;;;;;3.00;3.00;;;;;24.92;42.18;98248.53;6043517;28;97578;-74
2022/05/21 02:03:59;;;;;;;;;2.50;2.00;;;;;25.00;41.94;98250.47;6046907;28;96827;-74
2022/05/21 02:07:03;;;;;;;;;3.40;2.00;;;;;25.05;41.51;98249.47;6047275;28;98048;-75
2022/05/21 02:10:08;;;;;;;;;1.80;1.80;;;;;25.09;41.68;98258.69;6047110;28;96298;-73
2022/05/21 02:13:14;;;;;;;;;2.00;2.00;;;;;25.09;41.61;98253.16;6047507;28;96561;-75
2022/05/21 02:16:18;;;;;;;;;2.40;2.00;;;;;25.11;41.51;98266.63;6014488;28;97177;-74
2022/05/21 02:19:21;;;;;;;;;2.40;2.40;;;;;25.12;41.53;98257.22;6046972;28;98509;-73
2022/05/21 02:22:25;;;;;;;;;2.00;2.00;;;;;25.07;41.64;98258.19;6028548;28;97652;-74
2022/05/21 02:25:29;;;;;;;;;1.50;1.00;;;;;25.06;41.72;98264.06;6046954;28;97181;-73
2022/05/21 02:28:33;;;;;;;;;2.00;2.00;;;;;25.07;41.88;98255.44;6023285;28;97504;-74
2022/05/21 02:31:36;;;;;;;;;2.00;1.00;;;;;25.01;42.30;98257.59;6055555;28;97533;-73
2022/05/21 02:34:41;;;;;;;;;2.60;2.40;;;;;25.02;42.41;98247.38;6014296;28;96695;-75
2022/05/21 02:41:12;;;;;;;;;2.00;1.00;;;;;24.80;43.04;98240.13;6028767;28;96298;-74
2022/05/21 02:44:15;;;;;;;;;3.00;3.00;;;;;24.69;43.58;98241.63;6046963;28;97890;-73
2022/05/21 02:47:19;;;;;;;;;2.00;2.00;;;;;24.62;43.78;98233.06;6013858;28;98628;-73
2022/05/21 02:50:25;;;;;;;;;2.40;2.40;;;;;24.48;44.22;98224.97;6029646;28;96552;-74
2022/05/21 02:53:28;;;;;;;;;2.40;2.00;;;;;24.35;44.33;98236.19;6046464;28;96771;-74
2022/05/21 02:56:35;;;;;;;;;1.00;1.00;;;;;24.38;44.47;98246.56;6044931;28;97104;-73
2022/05/21 02:59:39;;;;;;;;;2.20;2.00;;;;;24.35;44.51;98236.19;6028692;28;97226;-73
2022/05/21 03:02:42;;;;;;;;;3.00;3.00;;;;;24.28;44.64;98233.16;6027674;28;97570;-74
2022/05/21 03:05:45;;;;;;;;;3.00;3.00;;;;;24.27;44.59;98232.34;6029746;28;97267;-74
2022/05/21 03:12:28;;;;;;;;;2.00;2.00;;;;;24.34;44.17;98251.09;5972935;29;97007;-74
2022/05/21 03:15:35;;;;;;;;;2.00;2.00;;;;;24.36;44.44;98252.41;5957706;29;98488;-73
2022/05/21 03:18:38;;;;;;;;;3.00;2.00;;;;;24.39;44.23;98253.69;6005269;29;96680;-75
2022/05/21 03:21:42;;;;;;;;;2.40;2.00;;;;;24.28;43.99;98241.41;6027115;28;98578;-74
2022/05/21 03:24:46;;;;;;;;;3.00;3.00;;;;;24.37;44.16;98247.72;6031720;28;99598;-75
2022/05/21 03:27:51;;;;;;;;;4.40;4.40;;;;;24.50;44.07;98260.47;6045246;28;98034;-75
2022/05/21 03:30:54;;;;;;;;;3.00;3.00;;;;;24.47;43.97;98261.16;6045452;28;96457;-75
2022/05/21 03:34:00;;;;;;;;;3.00;3.00;;;;;24.42;44.27;98255.81;6025471;28;96664;-74
2022/05/21 03:37:03;;;;;;;;;2.60;2.00;;;;;24.38;44.58;98263.09;6025654;28;97079;-74
2022/05/21 03:40:10;;;;;;;;;2.00;2.00;;;;;24.10;44.79;98224.88;6028633;28;98285;-74
2022/05/21 03:43:14;;;;;;;;;3.00;2.33;;;;;24.34;44.67;98260.19;6046170;28;97513;-73
2022/05/21 03:46:18;;;;;;;;;4.00;3.00;;;;;24.42;44.56;98264.88;6027316;28;96956;-73
2022/05/21 03:49:21;;;;;;;;;2.00;2.00;;;;;24.40;44.71;98260.81;6044836;28;97551;-72
2022/05/21 03:52:25;;;;;;;;;2.00;2.00;;;;;24.39;44.73;98272.97;6045558;28;96794;-73
2022/05/21 03:55:30;;;;;;;;;4.00;3.00;;;;;24.47;44.63;98267.47;6053440;28;96710;-74
2022/05/21 03:58:35;;;;;;;;;3.00;3.00;;;;;24.49;44.72;98273.44;6068711;28;97566;-74
2022/05/21 04:01:40;;;;;;;;;3.00;3.00;;;;;24.60;44.51;98271.97;6035861;28;97484;-74
2022/05/21 04:04:43;;;;;;;;;5.00;4.80;;;;;24.48;45.19;98271.81;6040807;28;99035;-73
2022/05/21 04:07:47;;;;;;;;;2.00;2.00;;;;;24.57;44.67;98280.09;6045524;28;97523;-73
2022/05/21 04:10:51;;;;;;;;;4.00;3.00;;;;;24.64;44.69;98276.81;6044117;28;96707;-73
2022/05/21 04:13:56;;;;;;;;;4.00;3.00;;;;;24.69;44.77;98280.22;6012571;28;98545;-73
2022/05/21 04:17:02;;;;;;;;;3.20;3.00;;;;;24.73;44.72;98266.59;6008794;28;98946;-73
2022/05/21 04:20:08;;;;;;;;;3.25;2.75;;;;;24.70;44.77;98281.00;6043007;28;99572;-74
2022/05/21 04:23:11;;;;;;;;;5.00;5.00;;;;;24.69;45.01;98280.22;6020884;28;99663;-73
2022/05/21 04:26:15;;;;;;;;;4.00;3.40;;;;;24.76;44.76;98280.53;6035523;28;97049;-74
2022/05/21 04:29:20;;;;;;;;;3.25;3.25;;;;;24.78;45.03;98271.91;6068570;28;96512;-73
2022/05/21 04:32:23;;;;;;;;;4.00;4.00;;;;;24.71;45.17;98280.69;6041994;28;97612;-73
2022/05/21 04:36:17;;;;;;;;;3.75;3.75;;;;;24.68;45.28;98284.09;6041730;28;97483;-74
2022/05/21 04:38:53;;;;;;;;;5.50;4.00;;;;;24.74;45.52;98295.75;6026155;28;98451;-73
2022/05/21 04:41:58;;;;;;;;;3.00;3.00;;;;;24.66;45.53;98291.91;6027448;28;98480;-74
2022/05/21 04:45:04;;;;;;;;;5.60;5.00;;;;;24.69;45.66;98288.47;6026437;28;96599;-74
2022/05/21 04:48:09;;;;;;;;;3.20;3.00;;;;;24.65;45.67;98297.72;6043633;28;97485;-73
2022/05/21 04:51:13;;;;;;;;;4.00;3.00;;;;;24.65;45.78;98304.06;6031252;28;98019;-74
2022/05/21 04:54:17;;;;;;;;;5.00;5.00;;;;;24.59;46.13;98308.94;6050363;28;98352;-73
2022/05/21 04:57:20;;;;;;;;;6.00;5.00;;;;;24.58;46.00;98312.81;6031624;28;99829;-73
2022/05/21 05:00:25;;;;;;;;;4.00;3.00;;;;;24.61;46.14;98308.59;6044119;28;96941;-72
2022/05/21 05:03:29;;;;;;;;;3.00;2.00;;;;;24.58;46.52;98304.53;6028646;28;97168;-73
2022/05/21 05:06:33;;;;;;;;;4.40;4.00;;;;;24.49;46.93;98301.00;6043883;28;97507;-74
2022/05/21 05:09:40;;;;;;;;;5.00;3.60;;;;;24.43;47.36;98316.09;6025518;28;96593;-74
2022/05/21 05:12:43;;;;;;;;;3.00;3.00;;;;;24.51;47.36;98308.94;6043473;28;96759;-73
2022/05/21 05:15:48;;;;;;;;;4.00;4.00;;;;;24.49;47.05;98313.97;6022926;28;97477;-76
2022/05/21 05:18:51;;;;;;;;;4.40;4.00;;;;;24.44;47.60;98311.38;6066001;28;99698;-73
2022/05/21 05:21:55;;;;;;;;;4.00;4.00;;;;;24.55;47.86;98313.47;6064201;28;97564;-72
2022/05/21 05:24:58;;;;;;;;;3.00;3.00;;;;;24.45;48.11;98316.56;6024279;28;98056;-73
2022/05/21 05:28:02;;;;;;;;;3.00;3.00;;;;;24.54;47.87;98324.81;6042616;28;96907;-74
2022/05/21 05:31:06;;;;;;;;;3.00;3.00;;;;;24.50;48.06;98326.63;6026021;28;98404;-72
2022/05/21 05:34:10;;;;;;;;;4.60;3.00;;;;;24.44;47.83;98322.41;6025489;28;96651;-73
2022/05/21 05:37:13;;;;;;;;;3.00;3.00;;;;;24.39;48.39;98326.13;6044249;28;97352;-73
2022/05/21 05:40:19;;;;;;;;;4.00;4.00;;;;;24.15;48.47;98321.09;6025105;28;96710;-73
2022/05/21 05:43:24;;;;;;;;;2.80;2.80;;;;;24.15;51.04;98347.81;6033841;28;97061;-72
2022/05/21 05:46:28;;;;;;;;;5.00;5.00;;;;;24.14;52.20;98351.72;6025733;28;98554;-73
2022/05/21 05:49:32;;;;;;;;;5.00;5.00;;;;;23.98;52.83;98359.66;6043252;28;96962;-74
2022/05/21 05:52:35;;;;;;;;;5.00;5.00;;;;;23.79;53.56;98359.13;6025722;28;99092;-73
2022/05/21 05:55:42;;;;;;;;;4.00;4.00;;;;;23.60;54.88;98359.38;6030709;28;97866;-74
2022/05/21 06:05:33;;;;;;;;;4.60;4.00;;;;;23.39;56.65;98365.75;6042014;28;97199;-73
2022/05/21 06:08:37;;;;;;;;;6.00;5.00;;;;;23.35;56.76;98370.28;6042671;28;97846;-73
2022/05/21 06:11:40;;;;;;;;;6.00;4.00;;;;;23.29;56.82;98367.66;6041951;28;97915;-73
2022/05/21 06:14:45;;;;;;;;;4.00;4.00;;;;;23.25;56.97;98374.94;6035288;28;96792;-73
2022/05/21 06:17:52;;;;;;;;;6.00;5.00;;;;;23.36;57.40;98375.44;6042382;28;96370;-72
2022/05/21 06:20:59;;;;;;;;;5.00;5.00;;;;;23.27;57.73;98364.41;6024862;28;96949;-72
2022/05/21 06:24:03;;;;;;;;;5.00;5.00;;;;;23.46;57.40;98369.69;6009797;28;97081;-72
2022/05/21 06:27:07;;;;;;;;;5.00;5.00;;;;;23.44;57.63;98373.88;6041356;28;97485;-72
2022/05/21 06:30:12;;;;;;;;;5.00;5.00;;;;;23.32;57.70;98371.72;6041221;28;97017;-72
2022/05/21 06:33:18;;;;;;;;;8.50;6.00;;;;;23.41;57.82;98378.06;6041115;28;97141;-72
2022/05/21 06:36:23;;;;;;;;;6.80;6.20;;;;;23.37;57.87;98365.25;6025839;28;97682;-72
2022/05/21 06:39:26;;;;;;;;;6.00;6.00;;;;;23.47;57.82;98368.56;6040869;28;98448;-72
2022/05/21 06:42:30;;;;;;;;;7.00;6.00;;;;;23.62;57.66;98367.31;6028281;28;100364;-73
2022/05/21 06:45:35;;;;;;;;;7.00;6.00;;;;;23.79;57.35;98383.09;6027500;28;98458;-73
2022/05/21 06:48:40;;;;;;;;;6.00;5.00;;;;;24.05;56.95;98387.50;6028797;28;98882;-73
2022/05/21 06:51:43;;;;;;;;;9.00;7.00;;;;;24.41;56.50;98387.25;6045015;28;96520;-73
2022/05/21 06:54:49;;;;;;;;;6.00;6.00;;;;;24.78;55.48;98390.44;6044605;28;97973;-73
2022/05/21 06:57:52;;;;;;;;;8.00;7.00;;;;;25.07;54.52;98393.34;6021908;28;96929;-74
2022/05/21 07:00:56;;;;;;;;;8.00;7.25;;;;;25.19;53.92;98376.13;6026782;28;97073;-73
2022/05/21 07:04:01;;;;;;;;;8.60;7.60;;;;;25.38;53.70;98398.63;6045705;28;97539;-73
2022/05/21 07:10:28;;;;;;;;;8.50;7.00;;;;;25.60;52.43;98398.41;6024022;28;96562;-73
2022/05/21 07:13:32;;;;;;;;;8.25;8.00;;;;;25.72;51.71;98401.25;6027028;28;97604;-73
2022/05/21 07:16:35;;;;;;;;;7.25;7.00;;;;;26.29;50.90;98407.09;6042582;28;96872;-73
2022/05/21 07:19:40;;;;;;;;;9.00;8.00;;;;;26.78;50.44;98398.28;6027343;28;97752;-73
2022/05/21 07:22:44;;;;;;;;;8.00;8.00;;;;;26.84;49.25;98410.72;6026162;28;99449;-73
2022/05/21 07:25:48;;;;;;;;;10.00;9.00;;;;;26.84;48.91;98417.06;6042648;28;96547;-73
2022/05/21 07:28:51;;;;;;;;;9.00;9.00;;;;;26.61;47.13;98415.81;6027693;28;97994;-74
2022/05/21 07:31:55;;;;;;;;;7.50;7.00;;;;;26.44;45.59;98418.72;6031727;28;96674;-73
2022/05/21 07:35:02;;;;;;;;;6.00;5.00;;;;;26.47;44.08;98427.16;6035070;28;98040;-74
2022/05/21 07:38:06;;;;;;;;;6.00;5.00;;;;;26.66;43.64;98421.13;6028087;28;98112;-73
2022/05/21 07:41:09;;;;;;;;;6.00;6.00;;;;;26.81;43.22;98428.81;6044855;28;97436;-74
2022/05/21 07:44:13;;;;;;;;;6.40;6.40;;;;;27.17;42.88;98428.19;6012756;28;98040;-73
2022/05/21 07:47:17;;;;;;;;;6.00;6.00;;;;;26.84;41.03;98433.66;6043748;28;99609;-74
2022/05/21 07:50:23;;;;;;;;;6.00;6.00;;;;;26.96;40.29;98424.63;6039598;28;96771;-74
2022/05/21 07:53:28;;;;;;;;;6.50;6.50;;;;;27.06;39.51;98447.16;6027739;28;97546;-74
2022/05/21 07:56:32;;;;;;;;;6.00;6.00;;;;;27.04;39.62;98449.44;6028461;28;96974;-74
2022/05/21 07:59:35;;;;;;;;;4.60;4.00;;;;;26.57;37.72;98446.09;6043703;28;97834;-74
2022/05/21 08:02:42;;;;;;;;;4.00;4.00;;;;;26.25;37.58;98455.91;6019015;29;97010;-75
2022/05/21 08:05:47;;;;;;;;;5.40;4.80;;;;;26.40;37.71;98460.03;6021242;28;97140;-74
2022/05/21 08:08:54;;;;;;;;;4.00;4.00;;;;;26.75;37.01;98444.00;6006877;28;96772;-73
2022/05/21 08:11:57;;;;;;;;;5.00;5.00;;;;;26.86;36.16;98452.69;6020786;29;96525;-74
2022/05/21 08:15:01;;;;;;;;;4.40;4.00;;;;;27.39;36.75;98463.75;6004983;29;98311;-73
2022/05/21 08:18:05;;;;;;;;;3.00;3.00;;;;;27.46;35.40;98471.50;6019818;28;100229;-75
2022/05/21 08:21:10;;;;;;;;;4.00;4.00;;;;;27.57;34.45;98439.47;6020182;29;96451;-74
2022/05/21 08:27:42;;;;;;;;;2.50;2.00;;;;;27.72;32.14;98474.78;5984901;28;97429;-74
2022/05/21 08:30:48;;;;;;;;;1.40;1.40;;;;;27.76;32.20;98461.09;6021448;28;98026;-74
2022/05/21 08:33:51;;;;;;;;;3.00;2.00;;;;;27.90;31.79;98461.56;6021921;28;96595;-74
2022/05/21 08:36:57;;;;;;;;;3.40;2.40;;;;;27.92;30.37;98468.34;6013806;29;97425;-73
2022/05/21 08:40:01;;;;;;;;;2.00;2.00;;;;;28.06;30.01;98468.00;5996793;29;96791;-74
2022/05/21 08:43:07;;;;;;;;;2.00;2.00;;;;;28.05;29.49;98474.72;5996988;29;97325;-74
2022/05/21 08:46:21;;;;;;;;;1.00;1.00;;;;;28.03;28.84;98463.16;5996741;29;98381;-74
2022/05/21 08:49:31;;;;;;;;;1.00;1.00;;;;;28.23;29.48;98467.81;5996898;29;97083;-75
2022/05/21 08:52:42;;;;;;;;;1.00;1.00;;;;;28.35;28.98;98483.59;5996719;29;96527;-75
2022/05/21 08:55:49;;;;;;;;;1.00;1.00;;;;;28.67;29.69;98487.38;5998067;29;96451;-74
2022/05/21 08:58:57;;;;;;;;;2.00;2.00;;;;;28.72;28.52;98487.97;5996150;29;96469;-72
2022/05/21 09:02:00;;;;;;;;;1.00;1.00;;;;;28.93;27.16;98495.31;6019100;28;96514;-73
2022/05/21 09:05:06;;;;;;;;;1.20;1.00;;;;;28.76;26.72;98488.06;6027344;28;99456;-73
2022/05/21 09:08:20;;;;;;;;;1.00;1.00;;;;;28.80;26.69;98500.88;6044770;28;97516;-74
2022/05/21 09:11:29;;;;;;;;;2.00;1.00;;;;;28.64;26.74;98502.75;6044580;28;97146;-74
2022/05/21 09:14:36;;;;;;;;;2.00;2.00;;;;;28.61;27.25;98497.09;6026982;28;98382;-73
2022/05/21 09:17:43;;;;;;;;;2.00;2.00;;;;;28.92;27.85;98502.84;6027476;28;96708;-73
2022/05/21 09:20:54;;;;;;;;;1.00;1.00;;;;;29.04;27.16;98502.78;6044418;28;96608;-74
2022/05/21 09:24:01;;;;;;;;;1.00;1.00;;;;;28.97;26.61;98504.56;6044238;28;96762;-73
2022/05/21 09:27:08;;;;;;;;;1.25;1.00;;;;;29.05;26.26;98503.59;6044235;28;96845;-74
2022/05/21 09:30:21;;;;;;;;;1.00;1.00;;;;;29.02;25.84;98515.41;6044099;28;96576;-74
2022/05/21 09:33:27;;;;;;;;;2.00;1.00;;;;;29.26;26.44;98518.09;6010776;28;100546;-74
2022/05/21 09:36:35;;;;;;;;;3.00;2.00;;;;;29.15;26.64;98509.44;6044092;28;96574;-74
2022/05/21 09:39:41;;;;;;;;;1.60;1.60;;;;;29.13;26.13;98533.97;6028247;28;96843;-75
2022/05/21 09:46:26;;;;;;;;;1.20;1.00;;;;;29.20;26.17;98508.41;5971241;29;96720;-74
2022/05/21 09:49:30;;;;;;;;;1.00;1.00;;;;;29.20;26.06;98523.09;5971536;29;96659;-73
2022/05/21 09:52:35;;;;;;;;;2.00;2.00;;;;;29.30;26.35;98538.44;6001306;29;99885;-74
2022/05/21 09:55:40;;;;;;;;;2.00;2.00;;;;;29.60;26.02;98533.34;6020398;29;96442;-73
2022/05/21 09:58:44;;;;;;;;;2.00;1.00;;;;;29.72;25.44;98519.38;6020299;29;97652;-73
2022/05/21 10:01:49;;;;;;;;;1.00;1.00;;;;;29.73;25.42;98531.28;6002835;29;100252;-75
2022/05/21 10:04:56;;;;;;;;;2.00;2.00;;;;;29.55;24.76;98531.63;6003176;29;96843;-74
2022/05/21 10:11:31;;;;;;;;;2.00;2.00;;;;;29.52;25.20;98537.06;6041742;28;99774;-73
2022/05/21 10:14:41;;;;;;;;;2.00;2.00;;;;;29.38;25.96;98534.72;6050047;28;96965;-72
2022/05/21 10:17:50;;;;;;;;;2.00;1.00;;;;;29.05;26.05;98534.94;6071187;28;96502;-74
2022/05/21 10:20:57;;;;;;;;;2.00;2.00;;;;;28.73;25.83;98531.22;6053836;28;98488;-74
2022/05/21 10:24:07;;;;;;;;;2.00;2.00;;;;;28.38;26.85;98532.84;6071221;28;96744;-74
2022/05/21 10:27:25;;;;;;;;;3.00;2.00;;;;;28.95;25.73;98540.97;6070994;28;96459;-73
2022/05/21 10:30:38;;;;;;;;;2.00;2.00;;;;;29.08;25.12;98520.34;6053905;28;97800;-73
2022/05/21 10:33:54;;;;;;;;;1.00;1.00;;;;;29.18;24.20;98533.72;6071024;28;96401;-74
2022/05/21 10:37:13;;;;;;;;;1.00;1.00;;;;;29.40;24.33;98545.47;6070634;28;97081;-72
2022/05/21 10:40:29;;;;;;;;;2.00;2.00;;;;;29.39;24.00;98553.00;6037746;28;96954;-75
2022/05/21 10:44:09;;;;;;;;;1.00;1.00;;;;;29.56;24.03;98551.91;6070804;28;97514;-73
2022/05/21 10:47:27;;;;;;;;;2.00;1.00;;;;;29.76;24.38;98550.88;6037575;28;98787;-73
2022/05/21 10:50:34;;;;;;;;;1.00;1.00;;;;;29.85;23.56;98547.91;6070658;28;96492;-73
2022/05/21 10:54:02;;;;;;;;;1.50;1.50;;;;;29.86;23.77;98555.88;6070362;28;96523;-74
2022/05/21 10:57:27;;;;;;;;;1.60;1.60;;;;;29.85;24.22;98540.38;6053088;28;99471;-74
2022/05/21 11:00:40;;;;;;;;;1.00;1.00;;;;;29.38;23.99;98545.00;6070423;28;96437;-75
2022/05/21 11:04:07;;;;;;;;;1.00;1.00;;;;;29.08;23.96;98542.53;6036494;28;100273;-72
2022/05/21 11:07:24;;;;;;;;;2.00;2.00;;;;;29.12;24.36;98543.47;6042889;28;99520;-73
2022/05/21 11:10:38;;;;;;;;;1.00;1.00;;;;;29.12;23.45;98548.22;6029371;28;99737;-73
2022/05/21 11:13:57;;;;;;;;;2.00;2.00;;;;;29.19;24.06;98534.53;6029560;28;97589;-73
2022/05/21 11:17:23;;;;;;;;;2.00;1.00;;;;;29.51;24.24;98543.81;6013955;28;97776;-73
2022/05/21 11:20:33;;;;;;;;;1.00;1.00;;;;;29.49;25.20;98540.56;6029902;28;97223;-74
2022/05/21 11:23:44;;;;;;;;;1.00;1.00;;;;;29.08;24.14;98528.66;6028046;28;98262;-74
2022/05/21 11:26:53;;;;;;;;;1.00;1.00;;;;;29.27;23.86;98544.69;6029052;28;100611;-74
2022/05/21 11:30:04;;;;;;;;;1.00;1.00;;;;;29.22;24.58;98534.63;6046433;28;96881;-74
2022/05/21 11:40:00;;;;;;;;;2.00;2.00;;;;;29.89;23.69;98534.94;6046174;28;97452;-74
2022/05/21 11:43:03;;;;;;;;;1.60;1.60;;;;;30.01;22.92;98537.63;6046025;28;97570;-73
2022/05/21 11:46:11;;;;;;;;;2.00;2.00;;;;;30.09;22.54;98536.66;6028985;28;97473;-74
2022/05/21 11:49:40;;;;;;;;;2.00;2.00;;;;;30.12;23.41;98553.41;6045191;28;97546;-73
2022/05/21 11:52:56;;;;;;;;;1.20;1.20;;;;;29.97;22.09;98548.66;6028774;28;96818;-73
2022/05/21 11:56:08;;;;;;;;;2.00;2.00;;;;;30.15;22.42;98539.97;6028939;28;97620;-73
2022/05/21 11:59:15;;;;;;;;;2.00;2.00;;;;;30.27;21.72;98535.13;6028288;28;97381;-74
2022/05/21 12:02:23;;;;;;;;;2.00;1.00;;;;;29.98;22.22;98538.34;6020169;29;96697;-73
2022/05/21 12:06:05;;;;;;;;;2.00;2.00;;;;;30.28;22.43;98545.09;6020193;29;97823;-73
2022/05/21 12:09:24;;;;;;;;;1.60;1.00;;;;;30.39;22.44;98534.22;5926967;29;96663;-73
2022/05/21 12:12:29;;;;;;;;;1.00;1.00;;;;;30.67;22.13;98546.03;5911673;29;99023;-74
2022/05/21 12:15:37;;;;;;;;;1.00;1.00;;;;;30.78;21.86;98543.50;5927118;29;98018;-74
2022/05/21 12:18:42;;;;;;;;;1.00;1.00;;;;;30.52;22.00;98539.34;5911957;29;96602;-74
2022/05/21 12:22:01;;;;;;;;;2.00;2.00;;;;;30.22;22.53;98545.69;5927547;29;96925;-72
2022/05/21 12:25:11;;;;;;;;;2.00;1.60;;;;;29.94;23.55;98552.16;5927105;29;96642;-73
2022/05/21 12:28:14;;;;;;;;;2.00;2.00;;;;;29.76;23.76;98545.31;5927272;29;98226;-74
2022/05/21 12:31:24;;;;;;;;;2.00;2.00;;;;;29.64;24.42;98539.81;5927111;29;97224;-74
2022/05/21 12:34:45;;;;;;;;;2.00;2.00;;;;;29.82;22.97;98545.81;5911527;29;97157;-74
2022/05/21 12:37:52;;;;;;;;;2.00;2.00;;;;;30.07;23.56;98550.91;5927222;29;97264;-74
2022/05/21 12:41:04;;;;;;;;;3.40;3.40;;;;;30.25;22.88;98550.56;5911674;29;97799;-74
2022/05/21 12:44:07;;;;;;;;;2.00;2.00;;;;;30.43;22.82;98549.81;5914695;29;99825;-74
2022/05/21 12:47:13;;;;;;;;;1.00;1.00;;;;;30.46;22.64;98537.19;6004391;29;98846;-73
2022/05/21 12:50:19;;;;;;;;;1.00;1.00;;;;;30.85;22.38;98546.44;6019890;29;97159;-73
2022/05/21 12:53:29;;;;;;;;;2.00;2.00;;;;;30.62;21.82;98543.53;6019754;29;96599;-73
2022/05/21 12:56:36;;;;;;;;;2.00;2.00;;;;;30.85;22.43;98554.78;6021055;29;97146;-75
2022/05/21 12:59:39;;;;;;;;;2.00;2.00;;;;;30.68;22.48;98533.75;6020583;29;98470;-73
2022/05/21 13:02:46;;;;;;;;;1.60;1.60;;;;;30.70;23.04;98547.28;6052999;28;96899;-75
2022/05/21 13:05:54;;;;;;;;;2.00;2.00;;;;;30.68;22.14;98553.22;6045072;28;96648;-73
2022/05/21 13:09:00;;;;;;;;;1.00;1.00;;;;;30.72;22.30;98565.25;6044610;28;96500;-75
2022/05/21 13:12:07;;;;;;;;;2.00;2.00;;;;;30.63;22.46;98563.81;6028227;28;97427;-74
2022/05/21 13:15:13;;;;;;;;;4.00;3.00;;;;;30.69;22.29;98551.25;6044246;28;97489;-74
2022/05/21 13:18:27;;;;;;;;;2.00;2.00;;;;;30.71;23.02;98562.81;6011707;28;99222;-75
2022/05/21 13:21:41;;;;;;;;;3.00;3.00;;;;;30.48;22.29;98557.94;6044137;28;96857;-74
2022/05/21 13:24:54;;;;;;;;;2.00;2.00;;;;;30.04;22.64;98543.28;6010685;28;97742;-74
2022/05/21 13:27:59;;;;;;;;;1.00;1.00;;;;;29.93;23.36;98560.84;6042743;28;98973;-74
2022/05/21 13:31:16;;;;;;;;;3.00;3.00;;;;;30.02;23.55;98561.47;6043709;28;96490;-73
2022/05/21 13:34:23;;;;;;;;;2.60;2.60;;;;;30.19;23.44;98577.81;6042953;28;97459;-74
2022/05/21 13:37:30;;;;;;;;;2.75;1.75;;;;;30.22;22.87;98560.41;6037999;28;96553;-73
2022/05/21 13:40:45;;;;;;;;;3.00;3.00;;;;;30.24;22.98;98546.16;6020562;29;96880;-73
2022/05/21 13:43:51;;;;;;;;;2.00;2.00;;;;;30.26;22.54;98557.72;6020452;29;96602;-73
2022/05/21 13:46:58;;;;;;;;;2.00;2.00;;;;;30.18;23.07;98555.94;6018816;29;97439;-74
2022/05/21 13:50:04;;;;;;;;;2.20;2.20;;;;;30.22;23.23;98579.06;6020492;29;97605;-73
2022/05/21 13:53:11;;;;;;;;;2.00;2.00;;;;;30.18;22.95;98578.19;6034442;28;97484;-73
2022/05/21 13:56:36;;;;;;;;;1.40;1.40;;;;;30.06;23.00;98590.16;6018941;29;98529;-74
2022/05/21 13:59:51;;;;;;;;;3.00;2.40;;;;;30.20;22.98;98571.09;6020195;29;97209;-73
2022/05/21 14:02:55;;;;;;;;;2.00;2.00;;;;;30.07;22.55;98558.44;6019331;29;97546;-73
2022/05/21 14:06:01;;;;;;;;;2.00;2.00;;;;;29.79;23.21;98566.00;6018674;28;99958;-74
2022/05/21 14:09:04;;;;;;;;;2.00;1.75;;;;;29.68;22.44;98569.28;6049802;28;99976;-73
2022/05/21 14:12:16;;;;;;;;;2.00;2.00;;;;;29.78;22.37;98569.94;6033934;28;96493;-73
2022/05/21 14:15:27;;;;;;;;;2.00;2.00;;;;;29.74;22.60;98572.63;6066936;28;96737;-74
2022/05/21 14:18:33;;;;;;;;;2.00;2.00;;;;;29.75;22.89;98574.25;6050082;28;96583;-72
2022/05/21 14:21:38;;;;;;;;;2.00;2.00;;;;;29.62;22.90;98553.22;6066251;28;97440;-72
2022/05/21 14:24:46;;;;;;;;;2.00;2.00;;;;;29.61;23.09;98557.19;6049300;28;99576;-72
2022/05/21 14:28:04;;;;;;;;;2.40;2.40;;;;;29.54;23.04;98555.03;6067203;28;96533;-73
2022/05/21 14:31:40;;;;;;;;;2.75;2.00;;;;;29.38;23.02;98567.22;6066849;28;97473;-74
2022/05/21 14:34:44;;;;;;;;;1.40;1.00;;;;;29.10;23.11;98559.66;5970617;29;96462;-73
2022/05/21 14:37:50;;;;;;;;;3.00;3.00;;;;;28.99;23.17;98568.81;5962286;29;97100;-74
2022/05/21 14:40:56;;;;;;;;;2.75;2.75;;;;;28.84;22.74;98550.94;5948517;29;96956;-74
2022/05/21 14:44:01;;;;;;;;;4.00;3.00;;;;;28.57;23.35;98579.38;5947871;29;97773;-74
2022/05/21 14:53:53;;;;;;;;;2.00;2.00;;;;;28.08;23.97;98478.75;5931972;29;97204;-73
2022/05/21 14:56:57;;;;;;;;;2.00;2.00;;;;;28.70;23.47;98569.88;5947362;29;96683;-73
2022/05/21 15:00:01;;;;;;;;;3.00;3.00;;;;;28.60;23.74;98573.13;5935635;29;96772;-73
2022/05/21 15:03:06;;;;;;;;;2.00;2.00;;;;;28.59;23.80;98564.00;5950857;29;97547;-73
2022/05/21 15:06:09;;;;;;;;;3.00;3.00;;;;;28.63;23.89;98564.13;5963620;29;97761;-73
2022/05/21 15:09:13;;;;;;;;;3.00;3.00;;;;;28.47;24.24;98565.97;6041022;28;97136;-76
2022/05/21 15:12:16;;;;;;;;;2.00;2.00;;;;;28.30;23.72;98564.22;6052440;28;98219;-75
2022/05/21 15:15:21;;;;;;;;;3.00;2.00;;;;;28.13;24.15;98561.69;6069831;28;97610;-75
2022/05/21 15:18:27;;;;;;;;;2.00;2.00;;;;;27.83;24.29;98544.41;6052664;28;96548;-75
2022/05/21 15:21:33;;;;;;;;;3.00;3.00;;;;;28.07;24.62;98563.84;6052561;28;98730;-73
2022/05/21 15:24:38;;;;;;;;;3.00;2.80;;;;;28.19;24.18;98565.88;6052987;28;97572;-75